Terminal Aerodrome Forecast
Issued by NWS

Home | Current Version | Previous Version | Text Only | Print | Product List | Glossary On
Versions: 1 2 3 4 5 6 7 8 9 10 11 12 13 14 15 16 17 18 19 20 21 22 23 24 25 26 27 28 29 30 31 32 33 34 35 36 37 38
000
FTUS46 KHNX 191410 AAA
TAFMCE
TAF AMD
KMCE 191410Z 1914/2012 00000KT 3SM BR FEW004 BKN090 BKN200
      TEMPO 1914/1918 1 1/2SM BR SCT004 BKN090 BKN200
     FM191800 11003KT P6SM SCT090 SCT200
      TEMPO 2009/2012 1/2SM FG=

USA.gov is the U.S. government's official web portal to all federal, state and local government web resources and services.